KUNU/UNU METAR and TAF weather

Enter ICAO airport designator
Station Type Date Time Source
KUNU METAR 2019/02/23 01:15 UTC NOAA

KUNU 230115Z AUTO 00000KT 10SM OVC100 M02/M07 A3036 RMK AO2 T10211074 TSNO


Station Type Date Time Source
KUNU Decoded METAR 2019/02/23 01:15 UTC NOAA

Juneau, Dodge County Airport, WI, United States (KUNU) 43-25-36N 088-42-12W
Feb 22, 2019 - 08:15 PM EST / 2019.02.23 0115 UTC
Wind: Calm:0
Visibility: 10 mile(s):0
Sky conditions: overcast
Temperature: 28.2 F (-2.1 C)
Dew Point: 18.7 F (-7.4 C)
Relative Humidity: 66%
Pressure (altimeter): 30.36 in. Hg (1028 hPa)
ob: KUNU 230115Z AUTO 00000KT 10SM OVC100 M02/M07 A3036 RMK AO2 T10211074 TSNO
cycle: 1

Station Type Date Time Source
KUNU TAF UTC NOAA

Error!


Example: see airport list